Time;durP1;ratioP1;P1;durP2;ratioP2;P2;SDS_P1;SDS_P2;PMS_P1;PMS_P2;Temp;Humidity;BMP_temperature;BMP_pressure;BME280_temperature;BME280_humidity;BME280_pressure;Samples;Min_cycle;Max_cycle;Signal;HPM_P1;HPM_P2
2023/10/10 00:01:14;;;;;;;6.10;3.22;;;;;;;12.08;100.00;101071.06;5091735;28;20470;-71
2023/10/10 00:03:42;;;;;;;11.73;3.10;;;;;;;11.98;100.00;101062.69;5124936;27;20098;-71
2023/10/10 00:06:08;;;;;;;6.75;3.03;;;;;;;12.44;100.00;101070.41;5092818;28;20117;-70
2023/10/10 00:08:43;;;;;;;8.95;3.10;;;;;;;12.66;100.00;101119.31;5092744;28;20067;-71
2023/10/10 00:11:14;;;;;;;5.40;2.83;;;;;;;12.42;100.00;101092.53;5092786;28;20028;-70
2023/10/10 00:13:46;;;;;;;9.20;3.10;;;;;;;12.07;100.00;101041.31;5092352;28;20028;-70
2023/10/10 00:16:27;;;;;;;5.70;2.92;;;;;;;12.63;100.00;101064.13;5090996;28;20481;-70
2023/10/10 00:18:56;;;;;;;7.50;2.85;;;;;;;12.94;100.00;101059.25;5092277;28;20027;-70
2023/10/10 00:21:28;;;;;;;8.77;2.90;;;;;;;12.71;100.00;101089.47;5090946;28;20059;-70
2023/10/10 00:23:55;;;;;;;7.25;3.20;;;;;;;12.96;100.00;101101.75;5092121;28;20032;-70
2023/10/10 00:26:25;;;;;;;5.43;2.92;;;;;;;13.18;100.00;101088.56;5090660;28;20077;-70
2023/10/10 00:28:57;;;;;;;5.90;3.30;;;;;;;12.97;100.00;101087.28;5091870;28;20094;-70
2023/10/10 00:31:26;;;;;;;6.15;3.05;;;;;;;13.23;100.00;101092.69;5091804;28;20066;-70
2023/10/10 00:33:52;;;;;;;7.90;2.95;;;;;;;13.04;100.00;101099.91;5092694;28;20036;-70
2023/10/10 00:36:33;;;;;;;7.55;3.20;;;;;;;13.35;100.00;101076.28;5094984;28;20546;-70
2023/10/10 00:39:22;;;;;;;6.63;2.90;;;;;;;12.88;100.00;101034.69;5092046;28;20031;-70
2023/10/10 00:41:56;;;;;;;6.50;2.80;;;;;;;13.30;100.00;101081.50;5091809;28;20058;-70
2023/10/10 00:44:22;;;;;;;8.43;2.75;;;;;;;13.21;100.00;101068.09;5091756;28;20032;-70
2023/10/10 00:46:54;;;;;;;7.78;2.83;;;;;;;12.97;100.00;101001.28;5091521;28;20615;-71
2023/10/10 00:49:25;;;;;;;6.90;3.00;;;;;;;13.32;100.00;101074.63;5101240;28;20482;-70
2023/10/10 00:51:56;;;;;;;9.27;3.15;;;;;;;12.76;100.00;101027.28;5111722;28;20110;-69
2023/10/10 00:56:55;;;;;;;6.15;2.80;;;;;;;12.73;100.00;101026.50;5111835;28;20023;-70
2023/10/10 01:02:22;;;;;;;7.72;3.15;;;;;;;12.87;100.00;100999.84;5088150;27;20104;-70
2023/10/10 01:04:49;;;;;;;6.75;2.90;;;;;;;13.24;100.00;101068.00;5111531;28;20451;-72
2023/10/10 01:07:20;;;;;;;9.40;2.83;;;;;;;13.05;100.00;101001.19;5111683;28;20436;-70
2023/10/10 01:09:56;;;;;;;6.25;2.80;;;;;;;13.60;100.00;101057.84;5111529;28;20032;-71
2023/10/10 01:12:28;;;;;;;7.95;3.10;;;;;;;13.22;100.00;101032.28;5111396;28;20035;-70
2023/10/10 01:14:57;;;;;;;4.80;2.60;;;;;;;13.66;100.00;101050.03;5111234;28;20031;-71
2023/10/10 01:17:29;;;;;;;7.93;2.97;;;;;;;13.47;100.00;101042.81;5110301;28;20024;-70
2023/10/10 01:20:09;;;;;;;8.18;3.17;;;;;;;13.61;100.00;101054.38;5109756;28;20035;-70
2023/10/10 01:22:38;;;;;;;5.80;2.90;;;;;;;13.36;100.00;101063.47;5111652;28;20038;-70
2023/10/10 01:25:28;;;;;;;5.63;3.08;;;;;;;13.37;100.00;101003.84;5111178;28;20541;-70
2023/10/10 01:27:53;;;;;;;7.53;3.28;;;;;;;13.23;100.00;101010.97;5111103;28;20035;-71
2023/10/10 01:30:19;;;;;;;4.32;2.78;;;;;;;13.22;100.00;100996.53;5111512;28;20027;-71
2023/10/10 01:32:50;;;;;;;11.68;3.03;;;;;;;13.28;100.00;101051.75;5109047;28;20031;-71
2023/10/10 01:35:16;;;;;;;7.13;3.10;;;;;;;13.35;100.00;101055.88;5107420;28;20041;-71
2023/10/10 01:37:48;;;;;;;6.70;3.00;;;;;;;12.51;100.00;100946.16;5111603;28;20544;-70
2023/10/10 01:40:16;;;;;;;6.05;2.78;;;;;;;13.36;100.00;101022.63;5109778;28;20031;-69
2023/10/10 01:42:51;;;;;;;9.77;3.10;;;;;;;13.02;100.00;100970.56;5111327;28;20039;-70
2023/10/10 01:45:19;;;;;;;8.32;2.85;;;;;;;13.35;100.00;101060.97;5111246;28;20562;-70
2023/10/10 01:47:56;;;;;;;4.28;2.55;;;;;;;13.34;100.00;101037.13;5110238;28;20034;-70
2023/10/10 01:50:30;;;;;;;11.57;3.08;;;;;;;13.50;100.00;101041.03;5111459;28;20028;-70
2023/10/10 01:53:00;;;;;;;6.35;2.78;;;;;;;13.27;100.00;101052.63;5095285;28;20028;-71
2023/10/10 01:55:27;;;;;;;;;;;;;;;13.30;100.00;101052.56;5091028;28;20031;-70
2023/10/10 01:58:01;;;;;;;8.55;2.90;;;;;;;12.92;100.00;101043.09;5091005;28;20302;-71
2023/10/10 02:00:27;;;;;;;9.52;2.90;;;;;;;12.67;100.00;100994.28;5090908;28;20119;-70
2023/10/10 02:02:53;;;;;;;8.77;3.65;;;;;;;12.60;100.00;101007.19;5089055;28;20139;-70
2023/10/10 02:08:04;;;;;;;13.15;4.85;;;;;;;12.77;100.00;101068.94;5090810;28;20071;-69
2023/10/10 02:10:30;;;;;;;9.98;4.40;;;;;;;12.57;100.00;101065.94;5092565;28;20041;-72
2023/10/10 02:13:05;;;;;;;9.00;3.63;;;;;;;12.31;100.00;100995.00;5098937;28;20040;-71
2023/10/10 02:15:35;;;;;;;9.07;3.40;;;;;;;12.04;100.00;100986.13;5114935;28;20106;-70
2023/10/10 02:18:12;;;;;;;8.20;3.55;;;;;;;12.47;100.00;101052.50;5099421;28;20024;-70
2023/10/10 02:23:31;;;;;;;9.35;3.85;;;;;;;11.96;100.00;100985.44;5097162;28;20512;-70
2023/10/10 02:29:16;;;;;;;6.93;3.25;;;;;;;12.17;100.00;101025.00;5114914;28;20078;-70
2023/10/10 02:31:28;;;;;;;8.10;3.30;;;;;;;12.11;100.00;100992.81;5103316;28;20122;-70
2023/10/10 02:34:03;;;;;;;7.35;3.60;;;;;;;12.25;100.00;101022.31;5092632;28;20039;-70
2023/10/10 02:36:34;;;;;;;8.85;3.28;;;;;;;12.40;100.00;101039.91;5094123;28;20026;-71
2023/10/10 02:42:00;;;;;;;10.13;3.47;;;;;;;12.18;100.00;100996.94;5094411;28;20032;-70
2023/10/10 02:47:01;;;;;;;7.55;3.80;;;;;;;12.36;100.00;101039.09;5114440;28;20122;-70
2023/10/10 02:51:56;;;;;;;9.02;3.63;;;;;;;12.76;100.00;101031.53;5111098;27;20032;-70
2023/10/10 02:56:59;;;;;;;7.90;3.47;;;;;;;12.03;100.00;100974.28;5110515;28;20059;-73
2023/10/10 02:59:31;;;;;;;11.30;3.47;;;;;;;12.19;100.00;100990.13;5092407;28;20035;-71
2023/10/10 03:01:59;;;;;;;8.77;3.58;;;;;;;12.41;100.00;100995.66;5093745;28;20056;-73
2023/10/10 03:07:08;;;;;;;6.53;3.10;;;;;;;12.28;100.00;100995.03;5094862;28;20046;-71
2023/10/10 03:10:15;;;;;;;7.72;4.07;;;;;;;12.43;100.00;101042.38;5113860;28;20019;-73
2023/10/10 03:12:37;;;;;;;10.10;3.90;;;;;;;12.35;100.00;101065.47;5112360;28;20023;-72
2023/10/10 03:25:53;;;;;;;14.20;4.22;;;;;;;12.11;100.00;100999.63;5096115;28;20047;-72
2023/10/10 03:31:09;;;;;;;10.15;4.28;;;;;;;12.28;100.00;101065.63;5110146;27;20041;-71
2023/10/10 03:39:15;;;;;;;6.93;4.30;;;;;;;11.91;100.00;101028.00;5102635;28;20031;-74
2023/10/10 05:25:22;;;;;;;16.73;10.90;;;;;;;15.00;100.00;101098.59;5111226;28;20042;-72
2023/10/10 05:27:51;;;;;;;19.83;10.75;;;;;;;13.38;100.00;101073.66;5112187;28;20023;-73
2023/10/10 05:30:23;;;;;;;19.48;10.40;;;;;;;12.99;100.00;101150.16;5111570;28;20034;-71
2023/10/10 05:33:02;;;;;;;21.50;10.98;;;;;;;13.37;100.00;101120.53;5111608;28;20031;-72
2023/10/10 05:35:30;;;;;;;22.98;10.65;;;;;;;13.28;100.00;101162.41;5111647;28;20024;-71
2023/10/10 05:37:56;;;;;;;17.23;9.38;;;;;;;12.71;100.00;101075.03;5109909;28;20063;-70
2023/10/10 05:40:24;;;;;;;15.95;8.60;;;;;;;12.37;100.00;101098.59;5111121;28;20027;-70
2023/10/10 05:42:51;;;;;;;21.02;8.55;;;;;;;12.98;100.00;101097.44;5110844;28;20027;-70
2023/10/10 05:45:20;;;;;;;19.85;8.00;;;;;;;13.18;100.00;101078.34;5110881;28;20019;-71
2023/10/10 05:47:47;;;;;;;20.08;8.88;;;;;;;13.85;100.00;101098.97;5111484;28;20023;-71
2023/10/10 05:50:13;;;;;;;21.80;10.20;;;;;;;14.01;100.00;101135.25;5110075;28;20032;-71
2023/10/10 05:52:39;;;;;;;30.25;10.05;;;;;;;13.61;100.00;101132.75;5110832;28;20036;-71
2023/10/10 05:55:11;;;;;;;21.45;9.27;;;;;;;14.19;100.00;101058.09;5111384;28;20065;-71
2023/10/10 05:57:37;;;;;;;26.15;8.70;;;;;;;15.12;100.00;101111.06;5110879;28;20034;-71
2023/10/10 06:00:10;;;;;;;21.13;7.47;;;;;;;15.15;100.00;101116.09;5111244;28;20027;-71
2023/10/10 06:02:37;;;;;;;18.77;8.07;;;;;;;15.38;100.00;101098.34;5111213;28;20053;-71
2023/10/10 06:05:05;;;;;;;16.60;7.72;;;;;;;15.39;100.00;101123.91;5109398;28;20048;-72
2023/10/10 06:07:31;;;;;;;19.58;7.65;;;;;;;15.39;100.00;101092.34;5109822;28;20031;-72
2023/10/10 06:09:58;;;;;;;14.30;6.10;;;;;;;14.26;100.00;101096.25;5110039;28;20019;-72
2023/10/10 06:12:24;;;;;;;12.80;6.65;;;;;;;15.25;100.00;101061.16;5110247;28;20436;-73
2023/10/10 06:14:50;;;;;;;20.40;6.80;;;;;;;15.83;100.00;101109.78;5110598;28;20038;-72
2023/10/10 06:17:16;;;;;;;16.30;6.65;;;;;;;16.29;100.00;101106.56;5111094;28;20027;-72
2023/10/10 06:19:45;;;;;;;16.67;6.75;;;;;;;16.23;100.00;101105.06;5110684;28;20024;-72
2023/10/10 06:22:14;;;;;;;15.55;6.50;;;;;;;15.78;100.00;101067.22;5110909;28;20028;-71
2023/10/10 06:24:41;;;;;;;17.02;6.35;;;;;;;15.88;100.00;101078.88;5109544;28;20035;-71
2023/10/10 06:27:09;;;;;;;13.88;5.93;;;;;;;15.58;100.00;101127.66;5111249;28;20409;-70
2023/10/10 06:29:40;;;;;;;15.32;6.15;;;;;;;16.08;100.00;101127.81;5110919;28;20023;-71
2023/10/10 06:32:10;;;;;;;17.85;6.20;;;;;;;16.15;100.00;101076.25;5111039;28;20036;-71
2023/10/10 06:34:36;;;;;;;13.48;5.85;;;;;;;15.61;100.00;101066.03;5110708;28;20139;-71
2023/10/10 06:37:07;;;;;;;13.95;5.25;;;;;;;15.13;100.00;101052.09;5108963;28;20570;-72
2023/10/10 06:39:34;;;;;;;12.68;6.13;;;;;;;14.68;100.00;101053.38;5110870;28;20118;-72
2023/10/10 06:41:59;;;;;;;14.95;5.65;;;;;;;15.78;100.00;101141.59;5110832;28;20062;-72
2023/10/10 06:44:35;;;;;;;12.07;5.80;;;;;;;15.80;100.00;101130.41;5110888;28;20027;-71
2023/10/10 06:47:08;;;;;;;17.25;5.57;;;;;;;15.63;100.00;101083.91;5110369;28;20028;-72
2023/10/10 06:49:43;;;;;;;12.15;5.93;;;;;;;15.49;100.00;101133.03;5110727;28;20028;-72
2023/10/10 06:52:14;;;;;;;15.05;5.57;;;;;;;15.80;100.00;101096.22;5109626;28;20066;-72
2023/10/10 06:54:44;;;;;;;15.80;5.70;;;;;;;15.57;100.00;101149.03;5109154;28;20398;-72
2023/10/10 06:57:16;;;;;;;12.73;5.40;;;;;;;15.32;100.00;101127.53;5112857;28;20032;-72
2023/10/10 06:59:42;;;;;;;15.40;5.80;;;;;;;15.99;100.00;101138.34;5114422;28;20474;-71
2023/10/10 07:02:20;;;;;;;12.98;5.55;;;;;;;15.93;100.00;101125.72;5114511;28;20076;-72
2023/10/10 07:04:52;;;;;;;14.43;5.85;;;;;;;15.84;100.00;101060.19;5113974;28;20050;-71
2023/10/10 07:07:19;;;;;;;15.18;5.20;;;;;;;16.36;100.00;101121.72;5114340;28;20053;-70
2023/10/10 07:09:45;;;;;;;15.20;5.63;;;;;;;16.31;100.00;101061.16;5112710;28;20509;-72
2023/10/10 07:12:10;;;;;;;20.70;6.28;;;;;;;16.60;100.00;101065.34;5114292;28;20047;-71
2023/10/10 07:14:45;;;;;;;16.33;5.78;;;;;;;17.23;100.00;101114.41;5112613;28;20027;-71
2023/10/10 07:17:11;;;;;;;14.23;5.75;;;;;;;17.49;100.00;101116.03;5114370;28;20030;-73
2023/10/10 07:19:54;;;;;;;21.88;7.00;;;;;;;17.20;100.00;101068.22;5113319;28;20042;-72
2023/10/10 07:22:21;;;;;;;27.50;8.40;;;;;;;17.12;100.00;101060.81;5112702;28;20215;-71
2023/10/10 07:24:48;;;;;;;13.57;6.68;;;;;;;17.34;100.00;101084.81;5113877;28;20020;-72
2023/10/10 07:27:18;;;;;;;17.88;6.57;;;;;;;17.61;100.00;101111.22;5112906;28;20274;-72
2023/10/10 07:32:16;;;;;;;10.18;5.40;;;;;;;17.67;100.00;101079.31;5113566;28;20122;-71
2023/10/10 07:34:51;;;;;;;9.60;5.25;;;;;;;17.73;100.00;101091.91;5112035;28;20046;-71
2023/10/10 07:37:17;;;;;;;16.45;5.65;;;;;;;17.99;100.00;101126.00;5113904;28;20028;-71
2023/10/10 07:39:55;;;;;;;12.70;6.07;;;;;;;17.81;100.00;101084.72;5115311;28;20031;-72
2023/10/10 07:42:30;;;;;;;15.10;5.85;;;;;;;17.61;100.00;101039.22;5118264;28;20020;-71
2023/10/10 07:44:57;;;;;;;12.23;5.43;;;;;;;17.87;100.00;101099.91;5113920;28;20035;-74
2023/10/10 07:47:26;;;;;;;13.77;5.60;;;;;;;18.11;100.00;101153.00;5102490;28;20074;-72
2023/10/10 07:50:08;;;;;;;13.18;6.22;;;;;;;17.94;100.00;101132.25;5093629;28;20042;-72
2023/10/10 07:52:35;;;;;;;15.20;7.03;;;;;;;17.94;100.00;101132.25;5091504;28;20051;-73
2023/10/10 07:55:04;;;;;;;10.10;5.60;;;;;;;18.14;100.00;101143.41;5093193;28;20075;-73
2023/10/10 07:57:55;;;;;;;17.15;10.85;;;;;;;18.34;100.00;101141.78;5093136;28;20053;-72
2023/10/10 08:00:17;;;;;;;24.52;15.30;;;;;;;18.54;100.00;101134.09;5093033;28;20035;-72
2023/10/10 08:02:49;;;;;;;16.80;9.55;;;;;;;18.35;100.00;101099.66;5092922;28;20024;-71
2023/10/10 08:05:19;;;;;;;12.15;7.32;;;;;;;18.27;100.00;101081.97;5092998;28;20198;-70
2023/10/10 08:07:46;;;;;;;13.23;6.40;;;;;;;18.44;100.00;101130.22;5092633;28;20233;-71
2023/10/10 08:10:29;;;;;;;10.48;5.75;;;;;;;18.21;100.00;101095.09;5092392;28;20032;-71
2023/10/10 08:12:56;;;;;;;10.85;5.90;;;;;;;18.10;100.00;101094.69;5092330;28;20028;-70
2023/10/10 08:15:25;;;;;;;8.73;5.60;;;;;;;18.34;100.00;101127.16;5092601;28;20119;-70
2023/10/10 08:17:54;;;;;;;11.85;5.90;;;;;;;18.29;100.00;101139.38;5091269;28;20082;-71
2023/10/10 08:23:07;;;;;;;7.93;6.00;;;;;;;18.26;100.00;101126.66;5092704;28;20028;-72
2023/10/10 08:25:33;;;;;;;9.07;5.47;;;;;;;18.34;100.00;101155.50;5092637;28;20035;-71
2023/10/10 08:27:59;;;;;;;11.00;6.05;;;;;;;18.25;100.00;101150.72;5091836;28;20032;-72
2023/10/10 08:30:26;;;;;;;10.00;6.15;;;;;;;18.39;100.00;101145.00;5092674;28;20143;-71
2023/10/10 08:32:56;;;;;;;10.40;5.50;;;;;;;18.02;100.00;101076.16;5092448;28;20036;-72
2023/10/10 08:35:29;;;;;;;10.57;5.90;;;;;;;18.15;100.00;101087.63;5092151;28;20035;-72
2023/10/10 08:37:57;;;;;;;10.05;5.88;;;;;;;18.62;100.00;101134.63;5092283;28;20501;-72
2023/10/10 08:40:33;;;;;;;11.05;6.00;;;;;;;18.66;100.00;101147.28;5091836;28;20028;-73
2023/10/10 08:42:59;;;;;;;11.75;6.07;;;;;;;18.54;100.00;101098.84;5091008;28;20083;-72
2023/10/10 08:45:25;;;;;;;11.10;5.85;;;;;;;18.42;100.00;101137.97;5091363;28;20471;-73
2023/10/10 08:47:58;;;;;;;11.32;5.63;;;;;;;18.36;100.00;101080.75;5091910;28;20485;-73
2023/10/10 08:50:24;;;;;;;11.93;6.07;;;;;;;18.43;100.00;101072.72;5092429;28;20121;-72
2023/10/10 08:52:51;;;;;;;14.02;5.85;;;;;;;18.99;100.00;101058.16;5090533;28;20032;-73
2023/10/10 08:55:19;;;;;;;9.02;5.70;;;;;;;19.82;100.00;101040.53;5092012;28;20469;-73
2023/10/10 08:57:45;;;;;;;11.05;6.28;;;;;;;19.94;100.00;101046.81;5090300;28;20020;-73
2023/10/10 09:00:12;;;;;;;9.45;6.40;;;;;;;20.39;100.00;101067.78;5090541;28;20039;-71
2023/10/10 09:02:39;;;;;;;15.45;6.95;;;;;;;20.78;100.00;101052.81;5092030;28;20075;-72
2023/10/10 09:05:07;;;;;;;10.88;5.88;;;;;;;20.61;100.00;101089.88;5091986;28;20507;-72
2023/10/10 09:07:34;;;;;;;11.02;5.40;;;;;;;20.56;100.00;101052.28;5092386;28;20084;-73
2023/10/10 09:10:06;;;;;;;10.77;5.30;;;;;;;20.69;100.00;101051.56;5091529;28;20036;-73
2023/10/10 09:12:52;;;;;;;11.23;5.60;;;;;;;21.57;100.00;101094.19;5091743;28;20039;-73
2023/10/10 09:15:19;;;;;;;10.10;5.38;;;;;;;21.29;100.00;101031.09;5091469;28;20123;-71
2023/10/10 09:17:46;;;;;;;10.60;5.00;;;;;;;21.79;100.00;101072.28;4735879;27;9999693;-72
2023/10/10 09:20:28;;;;;;;10.55;4.85;;;;;;;21.89;100.00;101013.91;5087816;28;20108;-72
2023/10/10 09:23:21;;;;;;;8.15;4.45;;;;;;;21.43;100.00;101091.50;5089260;28;20032;-71
2023/10/10 09:25:57;;;;;;;9.23;4.50;;;;;;;21.80;100.00;101087.72;5088357;28;20044;-72
2023/10/10 09:28:32;;;;;;;7.32;5.18;;;;;;;22.16;100.00;101048.53;5088232;28;20024;-71
2023/10/10 09:31:12;;;;;;;8.98;4.40;;;;;;;21.71;100.00;101018.31;5089102;28;20084;-71
2023/10/10 09:33:45;;;;;;;7.53;4.45;;;;;;;22.36;100.00;101064.56;5088059;28;20055;-70
2023/10/10 09:36:19;;;;;;;8.38;4.55;;;;;;;21.98;100.00;101027.13;5089348;28;20028;-71
2023/10/10 09:38:47;;;;;;;12.05;4.57;;;;;;;22.17;100.00;101068.34;5087752;28;20032;-72
2023/10/10 09:44:30;;;;;;;12.48;5.32;;;;;;;21.97;100.00;100965.88;5089707;28;20063;-71
2023/10/10 09:58:03;;;;;;;12.77;5.20;;;;;;;22.31;100.00;100993.19;5091449;28;20039;-71
2023/10/10 10:03:31;;;;;;;8.90;4.23;;;;;;;22.81;100.00;100978.00;5090872;28;20035;-72
2023/10/10 10:05:58;;;;;;;10.35;4.60;;;;;;;22.17;100.00;100999.22;5090504;28;20044;-72
2023/10/10 10:08:37;;;;;;;10.13;4.25;;;;;;;22.41;100.00;101000.34;5090786;28;20028;-72
2023/10/10 10:11:27;;;;;;;8.43;4.25;;;;;;;22.90;100.00;100990.41;5090286;28;20039;-73
2023/10/10 10:14:14;;;;;;;10.45;4.80;;;;;;;22.86;100.00;101032.19;5089442;28;20456;-73
2023/10/10 10:17:12;;;;;;;7.70;4.65;;;;;;;22.98;100.00;101039.19;5090583;28;20020;-71
2023/10/10 10:19:45;;;;;;;8.18;4.32;;;;;;;22.64;100.00;101000.75;5090425;28;20520;-72
2023/10/10 10:22:18;;;;;;;10.18;4.60;;;;;;;22.86;100.00;101040.81;5090915;28;20097;-72
2023/10/10 10:24:46;;;;;;;15.90;4.53;;;;;;;22.82;100.00;101031.53;5090428;28;20027;-73
2023/10/10 10:27:41;;;;;;;11.40;4.43;;;;;;;22.66;100.00;101035.19;5090819;28;20028;-73
2023/10/10 10:32:46;;;;;;;13.55;4.43;;;;;;;23.49;100.00;101015.19;5095264;28;20032;-73
2023/10/10 10:35:23;;;;;;;9.80;4.47;;;;;;;22.45;100.00;101037.28;5095092;28;20107;-73
2023/10/10 10:37:57;;;;;;;10.30;4.93;;;;;;;23.54;100.00;101017.47;5097993;27;20093;-72
2023/10/10 10:40:24;;;;;;;7.70;4.40;;;;;;;23.50;100.00;101001.25;5094697;28;20032;-73
2023/10/10 10:42:51;;;;;;;8.93;4.57;;;;;;;23.25;100.00;100963.03;5094698;28;20036;-72
2023/10/10 10:45:41;;;;;;;9.75;4.60;;;;;;;23.02;100.00;100962.84;5093057;28;20052;-72
2023/10/10 10:48:29;;;;;;;11.20;4.53;;;;;;;23.96;100.00;100981.72;5094687;28;20028;-73
2023/10/10 10:51:03;;;;;;;11.18;4.63;;;;;;;23.26;100.00;100959.53;5094247;28;20081;-73
2023/10/10 10:53:38;;;;;;;11.05;4.60;;;;;;;23.30;100.00;101027.63;5094307;28;20081;-73
2023/10/10 11:01:28;;;;;;;7.22;4.20;;;;;;;23.88;100.00;101004.78;5093930;28;20043;-73
2023/10/10 11:03:55;;;;;;;6.82;4.32;;;;;;;23.00;100.00;101019.19;5126868;27;20051;-72
2023/10/10 11:06:28;;;;;;;9.32;4.40;;;;;;;21.98;100.00;101021.97;5094293;28;20032;-72
2023/10/10 11:09:09;;;;;;;11.80;4.55;;;;;;;21.88;100.00;101057.06;5092670;28;20505;-72
2023/10/10 11:16:56;;;;;;;10.43;4.78;;;;;;;23.19;100.00;101035.28;5101320;28;20028;-73
2023/10/10 11:21:50;;;;;;;7.25;4.60;;;;;;;22.68;100.00;101054.88;5094076;28;20374;-74
2023/10/10 11:24:26;;;;;;;6.60;4.60;;;;;;;23.17;100.00;100972.25;5093064;28;20036;-73
2023/10/10 11:27:07;;;;;;;7.47;4.85;;;;;;;23.99;100.00;101012.69;5092560;28;20024;-73
2023/10/10 11:29:47;;;;;;;7.53;5.07;;;;;;;23.81;100.00;101013.91;5092523;28;20032;-72
2023/10/10 11:32:36;;;;;;;11.15;4.78;;;;;;;22.34;100.00;100964.53;5093665;28;20035;-72
2023/10/10 11:35:17;;;;;;;8.68;5.03;;;;;;;24.18;100.00;100995.88;5093026;28;20479;-72
2023/10/10 11:37:47;;;;;;;9.85;5.07;;;;;;;23.87;100.00;101008.28;5093372;28;20517;-73
2023/10/10 11:43:03;;;;;;;9.07;4.50;;;;;;;23.73;100.00;101010.97;5092448;28;20032;-71
2023/10/10 11:45:30;;;;;;;8.70;5.00;;;;;;;24.13;100.00;100928.59;5093615;28;20038;-71
2023/10/10 11:51:02;;;;;;;6.68;4.72;;;;;;;23.31;100.00;101011.19;5083710;28;20052;-71
2023/10/10 11:53:29;;;;;;;9.57;4.78;;;;;;;24.02;100.00;100994.31;5091969;28;20610;-72
2023/10/10 11:56:01;;;;;;;7.03;4.82;;;;;;;23.97;100.00;100978.16;5093035;28;20032;-70
2023/10/10 11:58:35;;;;;;;;;;;;;;;24.05;100.00;100999.31;5093620;28;20125;-70
2023/10/10 12:01:05;;;;;;;12.32;5.07;;;;;;;23.99;100.00;101001.44;5091618;28;19962;-71
2023/10/10 12:04:04;;;;;;;10.43;4.65;;;;;;;24.02;100.00;101009.06;5091302;28;20048;-70
2023/10/10 12:06:19;;;;;;;10.38;4.38;;;;;;;24.29;100.00;100989.00;5092632;28;20044;-71
2023/10/10 12:08:48;;;;;;;8.95;4.65;;;;;;;23.93;100.00;100922.13;5126059;27;20043;-70
2023/10/10 12:11:19;;;;;;;10.40;4.50;;;;;;;24.83;100.00;101006.03;5092669;28;20031;-71
2023/10/10 12:13:45;;;;;;;9.65;4.22;;;;;;;23.74;100.00;100907.91;5093017;28;20032;-70
2023/10/10 12:16:11;;;;;;;6.00;4.15;;;;;;;24.18;100.00;100944.72;5092400;27;20113;-70
2023/10/10 12:18:44;;;;;;;7.75;4.22;;;;;;;24.61;100.00;100938.19;5092056;28;20391;-71
2023/10/10 12:21:14;;;;;;;9.57;3.90;;;;;;;25.15;100.00;100935.19;5092753;28;20028;-70
2023/10/10 12:23:39;;;;;;;9.73;4.20;;;;;;;24.75;100.00;100984.91;5091133;28;20479;-72
2023/10/10 12:26:04;;;;;;;7.15;3.72;;;;;;;25.00;100.00;100973.56;5092695;28;20047;-72
2023/10/10 12:28:30;;;;;;;8.50;3.85;;;;;;;24.22;100.00;100992.97;5092829;28;20032;-75
2023/10/10 12:31:03;;;;;;;7.97;3.75;;;;;;;24.10;100.00;100983.41;5092134;28;20035;-72
2023/10/10 12:33:29;;;;;;;5.97;3.70;;;;;;;23.94;100.00;101009.56;5092796;28;20020;-72
2023/10/10 12:35:56;;;;;;;6.65;3.60;;;;;;;23.70;100.00;100959.22;5092171;28;20028;-71
2023/10/10 12:38:22;;;;;;;5.22;3.90;;;;;;;23.39;100.00;100966.53;5091315;28;20024;-72
2023/10/10 12:40:52;;;;;;;11.50;3.80;;;;;;;23.76;100.00;100994.34;5092195;28;20047;-73
2023/10/10 12:43:23;;;;;;;6.72;4.10;;;;;;;23.89;100.00;101009.03;5092091;27;20028;-74
2023/10/10 12:45:51;;;;;;;;;;;;;;;24.37;100.00;100985.88;5126022;27;20037;-73
2023/10/10 12:48:23;;;;;;;14.02;4.43;;;;;;;24.60;100.00;100992.94;5092180;28;20542;-73
2023/10/10 12:50:52;;;;;;;6.68;3.70;;;;;;;24.26;100.00;100936.41;5090770;28;20028;-75
2023/10/10 12:53:20;;;;;;;9.00;4.40;;;;;;;23.50;100.00;101013.41;5091636;28;20046;-73
2023/10/10 12:55:52;;;;;;;15.57;4.32;;;;;;;22.93;100.00;100971.22;5091441;28;20024;-73
2023/10/10 12:58:22;;;;;;;4.97;4.10;;;;;;;23.24;100.00;101033.22;5091992;28;20024;-72
2023/10/10 13:00:52;;;;;;;6.53;3.60;;;;;;;22.92;100.00;100992.88;5092470;28;20032;-72
2023/10/10 13:03:20;;;;;;;9.02;3.90;;;;;;;22.54;100.00;101057.44;5091892;28;20091;-72
2023/10/10 13:05:51;;;;;;;7.45;3.75;;;;;;;22.42;100.00;100998.59;5092238;28;20052;-72
2023/10/10 13:08:20;;;;;;;8.23;4.00;;;;;;;22.86;100.00;101035.63;5091441;28;20027;-73
2023/10/10 13:10:45;;;;;;;9.45;3.28;;;;;;;23.14;100.00;101051.13;5090796;28;20031;-72
2023/10/10 13:13:15;;;;;;;6.40;3.53;;;;;;;23.05;100.00;101025.78;5092182;28;20036;-72
2023/10/10 13:15:47;;;;;;;6.57;3.58;;;;;;;22.97;100.00;101017.63;5090441;28;20036;-73
2023/10/10 13:18:19;;;;;;;6.97;3.45;;;;;;;23.06;100.00;101030.03;5091611;28;20051;-72
2023/10/10 13:20:50;;;;;;;4.90;3.28;;;;;;;22.12;100.00;100936.50;5091692;28;20032;-73
2023/10/10 13:23:17;;;;;;;10.07;3.35;;;;;;;22.58;100.00;100973.41;5090442;28;20042;-72
2023/10/10 13:25:42;;;;;;;8.80;3.40;;;;;;;22.40;100.00;101001.25;5091284;28;20032;-72
2023/10/10 13:28:09;;;;;;;6.47;3.30;;;;;;;22.34;100.00;101035.31;5090824;28;20032;-72
2023/10/10 13:30:46;;;;;;;7.07;3.47;;;;;;;22.35;100.00;101065.50;5089807;28;20028;-73
2023/10/10 13:33:16;;;;;;;6.72;3.58;;;;;;;22.60;100.00;101041.56;5090232;28;20054;-73
2023/10/10 13:35:44;;;;;;;6.97;3.42;;;;;;;22.46;100.00;101023.41;5091622;28;20505;-73
2023/10/10 13:38:10;;;;;;;6.65;3.45;;;;;;;22.76;100.00;101057.03;5091653;28;20031;-72
2023/10/10 13:40:45;;;;;;;7.18;3.20;;;;;;;22.49;100.00;101035.31;5090760;28;20024;-72
2023/10/10 13:43:16;;;;;;;9.52;4.03;;;;;;;21.73;100.00;100954.34;5091072;28;20028;-73
2023/10/10 13:45:48;;;;;;;6.25;3.63;;;;;;;22.43;100.00;100998.50;5089916;28;20095;-73
2023/10/10 13:48:13;;;;;;;;;;;;;;;22.34;100.00;101057.81;5090290;28;20414;-73
2023/10/10 13:50:42;;;;;;;6.93;3.63;;;;;;;21.84;100.00;100997.78;5091393;28;19957;-73
2023/10/10 13:53:11;;;;;;;6.80;3.35;;;;;;;21.71;100.00;100978.66;5091538;28;20032;-72
2023/10/10 13:55:46;;;;;;;6.57;3.58;;;;;;;22.92;100.00;101016.22;5090022;28;20032;-73
2023/10/10 13:58:13;;;;;;;6.53;3.38;;;;;;;22.41;100.00;101018.50;5089859;28;20050;-73
2023/10/10 14:00:52;;;;;;;6.55;3.70;;;;;;;22.52;100.00;101046.38;5091243;28;20040;-73
2023/10/10 14:03:28;;;;;;;9.38;3.60;;;;;;;22.32;100.00;101016.44;5091284;28;20024;-73
2023/10/10 14:06:00;;;;;;;9.80;3.63;;;;;;;22.81;100.00;101044.63;5091191;28;20430;-73
2023/10/10 14:08:27;;;;;;;7.50;3.40;;;;;;;22.34;100.00;100991.25;5089503;28;20023;-72
2023/10/10 14:10:53;;;;;;;10.35;3.78;;;;;;;22.06;100.00;100983.47;5090812;28;20060;-72
2023/10/10 14:13:19;;;;;;;11.52;3.78;;;;;;;22.57;100.00;101048.66;5090796;28;20032;-74
2023/10/10 14:15:54;;;;;;;9.95;3.45;;;;;;;21.93;100.00;100998.06;5090361;27;20032;-72
2023/10/10 14:18:22;;;;;;;9.40;3.78;;;;;;;22.90;100.00;101044.03;5090649;28;20486;-73
2023/10/10 14:20:50;;;;;;;6.43;3.40;;;;;;;22.16;100.00;100963.88;5090303;28;20033;-73
2023/10/10 14:23:18;;;;;;;12.95;4.00;;;;;;;22.44;100.00;101062.34;5090774;28;20024;-73
2023/10/10 14:25:47;;;;;;;7.40;3.20;;;;;;;21.58;100.00;101014.78;5090781;28;20036;-73
2023/10/10 14:28:16;;;;;;;4.15;3.15;;;;;;;23.84;100.00;101044.88;5090086;28;20029;-74
2023/10/10 14:30:43;;;;;;;15.30;3.90;;;;;;;24.28;100.00;101009.91;5089522;28;20028;-74
2023/10/10 14:33:08;;;;;;;7.05;3.22;;;;;;;25.42;100.00;100910.59;5090176;28;20127;-72
2023/10/10 14:35:34;;;;;;;4.97;3.35;;;;;;;25.51;100.00;100967.19;5091067;28;20115;-78
2023/10/10 14:38:00;;;;;;;9.32;3.45;;;;;;;22.83;100.00;101042.75;5091318;28;20050;-79
2023/10/10 14:40:26;;;;;;;5.75;2.85;;;;;;;22.12;100.00;101045.31;5091645;28;20106;-74
2023/10/10 14:42:52;;;;;;;5.32;3.10;;;;;;;21.79;100.00;101088.63;5091224;28;20055;-75
2023/10/10 14:45:28;;;;;;;6.15;3.10;;;;;;;21.81;100.00;101094.59;5090015;28;20020;-77